Time;durP1;ratioP1;P1;durP2;ratioP2;P2;SDS_P1;SDS_P2;PMS_P1;PMS_P2;Temp;Humidity;BMP_temperature;BMP_pressure;BME280_temperature;BME280_humidity;BME280_pressure;Samples;Min_cycle;Max_cycle;Signal;HPM_P1;HPM_P2
2021/05/10 00:00:32;;;;;;;;;;;;;;;;;;4305731;33;20055;-85
2021/05/10 00:03:02;;;;;;;;;;;;;;;;;;4291118;33;20046;-85
2021/05/10 00:05:32;;;;;;;;;;;;;;;;;;4301713;33;19991;-85
2021/05/10 00:08:02;;;;;;;;;;;;;;;;;;4304707;33;19948;-84
2021/05/10 00:10:30;;;;;;;;;;;;;;;;;;4297469;33;20072;-85
2021/05/10 00:13:00;;;;;;;;;;;;;;;;;;4295549;33;20020;-85
2021/05/10 00:15:30;;;;;;;;;;;;;;;;;;4307774;33;20287;-85
2021/05/10 00:18:02;;;;;;;;;;;;;;;;;;4313319;33;19949;-85
2021/05/10 00:20:30;;;;;;;;;;;;;;;;;;4297962;33;19979;-85
2021/05/10 00:23:00;;;;;;;;;;;;;;;;;;4295780;33;20557;-85
2021/05/10 00:25:31;;;;;;;;;;;;;;;;;;4304725;33;20024;-85
2021/05/10 00:27:59;;;;;;;;;;;;;;;;;;4301772;33;20011;-85
2021/05/10 00:30:29;;;;;;;;;;;;;;;;;;4301663;33;19992;-85
2021/05/10 00:32:59;;;;;;;;;;;;;;;;;;4304531;33;20003;-85
2021/05/10 00:35:29;;;;;;;;;;;;;;;;;;4304843;33;20090;-85
2021/05/10 00:37:59;;;;;;;;;;;;;;;;;;4300670;33;20482;-85
2021/05/10 00:40:29;;;;;;;;;;;;;;;;;;4299088;33;20044;-85
2021/05/10 00:43:00;;;;;;;;;;;;;;;;;;4301877;33;20051;-85
2021/05/10 00:45:30;;;;;;;;;;;;;;;;;;4306833;33;20012;-86
2021/05/10 00:48:00;;;;;;;;;;;;;;;;;;4276565;33;20458;-85
2021/05/10 00:50:30;;;;;;;;;;;;;;;;;;4299661;33;19952;-85
2021/05/10 00:53:00;;;;;;;;;;;;;;;;;;4313918;33;19960;-85
2021/05/10 00:55:32;;;;;;;;;;;;;;;;;;4303564;33;19956;-85
2021/05/10 00:58:02;;;;;;;;;;;;;;;;;;4294279;33;20303;-86
2021/05/10 01:00:33;;;;;;;;;;;;;;;;;;4296920;33;20011;-84
2021/05/10 01:03:07;;;;;;;;;;;;;;;;;;4301894;33;19956;-85
2021/05/10 01:05:37;;;;;;;;;;;;;;;;;;4302505;33;20604;-84
2021/05/10 01:08:05;;;;;;;;;;;;;;;;;;4290777;33;20023;-86
2021/05/10 01:10:35;;;;;;;;;;;;;;;;;;4304250;33;19956;-84
2021/05/10 01:13:05;;;;;;;;;;;;;;;;;;4313771;33;20427;-86
2021/05/10 01:15:35;;;;;;;;;;;;;;;;;;4304156;33;20059;-85
2021/05/10 01:18:06;;;;;;;;;;;;;;;;;;4290184;33;20047;-85
2021/05/10 01:20:35;;;;;;;;;;;;;;;;;;4301033;33;20003;-84
2021/05/10 01:23:06;;;;;;;;;;;;;;;;;;4308192;33;19960;-85
2021/05/10 01:25:36;;;;;;;;;;;;;;;;;;4304325;33;20067;-84
2021/05/10 01:28:04;;;;;;;;;;;;;;;;;;4297516;33;20043;-85
2021/05/10 01:30:31;;;;;;;;;;;;;;;;;;4297737;33;20280;-84
2021/05/10 01:33:02;;;;;;;;;;;;;;;;;;4303389;33;20033;-84
2021/05/10 01:35:33;;;;;;;;;;;;;;;;;;4280612;33;20446;-86
2021/05/10 01:38:04;;;;;;;;;;;;;;;;;;4292043;33;20038;-84
2021/05/10 01:40:34;;;;;;;;;;;;;;;;;;4299959;33;20004;-85
2021/05/10 01:43:04;;;;;;;;;;;;;;;;;;4307565;33;19983;-84
2021/05/10 01:45:34;;;;;;;;;;;;;;;;;;4300258;33;20579;-85
2021/05/10 01:48:04;;;;;;;;;;;;;;;;;;4293450;33;20449;-85
2021/05/10 01:50:35;;;;;;;;;;;;;;;;;;4299971;33;20051;-85
2021/05/10 01:53:06;;;;;;;;;;;;;;;;;;4300153;33;20667;-85
2021/05/10 01:55:36;;;;;;;;;;;;;;;;;;4294676;33;20369;-85
2021/05/10 01:58:04;;;;;;;;;;;;;;;;;;4289192;33;20010;-86
2021/05/10 02:00:34;;;;;;;;;;;;;;;;;;4303936;33;21257;-84
2021/05/10 02:03:04;;;;;;;;;;;;;;;;;;4309923;33;20011;-85
2021/05/10 02:05:34;;;;;;;;;;;;;;;;;;4307047;33;19995;-85
2021/05/10 02:08:02;;;;;;;;;;;;;;;;;;4293268;33;20675;-85
2021/05/10 02:10:33;;;;;;;;;;;;;;;;;;4298525;33;20328;-85
2021/05/10 02:13:03;;;;;;;;;;;;;;;;;;4307454;33;19957;-84
2021/05/10 02:15:33;;;;;;;;;;;;;;;;;;4295685;33;20027;-84
2021/05/10 02:18:03;;;;;;;;;;;;;;;;;;4293805;33;19974;-85
2021/05/10 02:20:34;;;;;;;;;;;;;;;;;;4297678;33;20405;-86
2021/05/10 02:23:04;;;;;;;;;;;;;;;;;;4300143;33;20000;-86
2021/05/10 02:25:34;;;;;;;;;;;;;;;;;;4288990;33;20020;-84
2021/05/10 02:28:04;;;;;;;;;;;;;;;;;;4291389;33;20023;-85
2021/05/10 02:30:36;;;;;;;;;;;;;;;;;;4293897;33;20042;-85
2021/05/10 02:33:06;;;;;;;;;;;;;;;;;;4301289;33;19956;-85
2021/05/10 02:35:36;;;;;;;;;;;;;;;;;;4289591;33;20124;-86
2021/05/10 02:38:04;;;;;;;;;;;;;;;;;;4282446;33;19960;-85
2021/05/10 02:40:34;;;;;;;;;;;;;;;;;;4301443;33;21094;-85
2021/05/10 02:43:05;;;;;;;;;;;;;;;;;;4305598;33;20000;-84
2021/05/10 02:45:36;;;;;;;;;;;;;;;;;;4292772;33;20483;-84
2021/05/10 02:48:04;;;;;;;;;;;;;;;;;;4291593;33;20332;-85
2021/05/10 02:50:34;;;;;;;;;;;;;;;;;;4297798;33;20407;-85
2021/05/10 02:53:21;;;;;;;;;;;;;;;;;;4289786;33;20484;-84
2021/05/10 02:55:52;;;;;;;;;;;;;;;;;;4295361;33;20004;-85
2021/05/10 02:58:20;;;;;;;;;;;;;;;;;;4296019;33;19963;-85
2021/05/10 03:00:50;;;;;;;;;;;;;;;;;;4297118;33;19979;-85
2021/05/10 03:03:20;;;;;;;;;;;;;;;;;;4303573;33;20291;-85
2021/05/10 03:05:51;;;;;;;;;;;;;;;;;;4302901;33;20027;-84
2021/05/10 03:08:19;;;;;;;;;;;;;;;;;;4304964;33;20639;-84
2021/05/10 03:10:59;;;;;;;;;;;;;;;;;;4327748;27;19959;-93
2021/05/10 03:13:36;;;;;;;;;;;;;;;;;;4302129;33;19974;-95
2021/05/10 03:16:08;;;;;;;;;;;;;;;;;;4311321;33;19974;-94
2021/05/10 03:18:42;;;;;;;;;;;;;;;;;;4320221;33;19948;-94
2021/05/10 03:21:19;;;;;;;;;;;;;;;;;;4309481;33;19963;-93
2021/05/10 03:24:01;;;;;;;;;;;;;;;;;;4314422;33;20380;-94
2021/05/10 03:26:31;;;;;;;;;;;;;;;;;;4318311;33;19948;-94
2021/05/10 03:29:06;;;;;;;;;;;;;;;;;;4321027;33;19956;-94
2021/05/10 03:31:36;;;;;;;;;;;;;;;;;;4313866;33;19983;-95
2021/05/10 03:34:11;;;;;;;;;;;;;;;;;;4310522;33;19994;-94
2021/05/10 03:36:41;;;;;;;;;;;;;;;;;;4311129;33;19967;-94
2021/05/10 03:39:13;;;;;;;;;;;;;;;;;;4313555;33;19980;-94
2021/05/10 03:41:54;;;;;;;;;;;;;;;;;;4314105;33;19948;-93
2021/05/10 03:44:33;;;;;;;;;;;;;;;;;;4313342;33;20015;-93
2021/05/10 03:47:04;;;;;;;;;;;;;;;;;;4303906;33;19987;-96
2021/05/10 03:49:41;;;;;;;;;;;;;;;;;;4305088;33;19995;-94
2021/05/10 03:52:15;;;;;;;;;;;;;;;;;;4317018;33;20010;-95
2021/05/10 03:54:50;;;;;;;;;;;;;;;;;;4300974;33;19971;-95
2021/05/10 03:57:24;;;;;;;;;;;;;;;;;;4302072;33;19960;-94
2021/05/10 04:00:01;;;;;;;;;;;;;;;;;;4307691;33;19974;-94
2021/05/10 04:02:45;;;;;;;;;;;;;;;;;;4315489;33;20013;-95
2021/05/10 04:05:54;;;;;;;;;;;;;;;;;;4313053;33;19970;-94
2021/05/10 04:14:01;;;;;;;;;;;;;;;;;;4317107;33;20019;-94
2021/05/10 04:16:44;;;;;;;;;;;;;;;;;;4305939;33;19996;-95
2021/05/10 04:19:19;;;;;;;;;;;;;;;;;;4295304;33;19957;-94
2021/05/10 04:21:50;;;;;;;;;;;;;;;;;;4302935;33;19994;-94
2021/05/10 04:24:20;;;;;;;;;;;;;;;;;;4317839;33;20056;-96
2021/05/10 04:27:04;;;;;;;;;;;;;;;;;;4302074;33;20007;-93
2021/05/10 04:29:37;;;;;;;;;;;;;;;;;;4298911;33;20015;-95
2021/05/10 04:32:05;;;;;;;;;;;;;;;;;;4302046;33;21191;-95
2021/05/10 04:34:39;;;;;;;;;;;;;;;;;;4292734;33;20046;-93
2021/05/10 04:37:12;;;;;;;;;;;;;;;;;;4303448;33;20107;-93
2021/05/10 04:39:48;;;;;;;;;;;;;;;;;;4294546;33;19995;-93
2021/05/10 04:42:21;;;;;;;;;;;;;;;;;;4315298;33;19992;-94
2021/05/10 04:44:52;;;;;;;;;;;;;;;;;;4300050;33;20418;-94
2021/05/10 04:47:36;;;;;;;;;;;;;;;;;;4306011;33;20097;-93
2021/05/10 04:50:09;;;;;;;;;;;;;;;;;;4315037;33;20034;-93
2021/05/10 04:52:37;;;;;;;;;;;;;;;;;;4313361;33;19957;-95
2021/05/10 04:55:08;;;;;;;;;;;;;;;;;;4315366;33;19964;-93
2021/05/10 04:57:38;;;;;;;;;;;;;;;;;;4306613;33;20305;-93
2021/05/10 05:00:12;;;;;;;;;;;;;;;;;;4300489;33;20059;-95
2021/05/10 05:02:45;;;;;;;;;;;;;;;;;;4315017;33;20336;-94
2021/05/10 05:05:20;;;;;;;;;;;;;;;;;;4302825;33;19956;-94
2021/05/10 05:07:50;;;;;;;;;;;;;;;;;;4310749;33;20031;-94
2021/05/10 05:10:21;;;;;;;;;;;;;;;;;;4300647;33;19976;-94
2021/05/10 05:12:52;;;;;;;;;;;;;;;;;;4313541;33;19970;-94
2021/05/10 05:15:37;;;;;;;;;;;;;;;;;;4302158;33;19980;-94
2021/05/10 05:18:14;;;;;;;;;;;;;;;;;;4304637;33;19948;-93
2021/05/10 05:20:45;;;;;;;;;;;;;;;;;;4303188;33;19996;-94
2021/05/10 05:23:13;;;;;;;;;;;;;;;;;;4299205;33;20010;-96
2021/05/10 05:25:47;;;;;;;;;;;;;;;;;;4296138;33;19962;-93
2021/05/10 05:28:21;;;;;;;;;;;;;;;;;;4309811;33;19972;-96
2021/05/10 05:31:29;;;;;;;;;;;;;;;;;;4294545;33;20009;-96
2021/05/10 05:34:32;;;;;;;;;;;;;;;;;;4287045;33;19941;-96
2021/05/10 05:37:27;;;;;;;;;;;;;;;;;;4327857;33;19951;-96
2021/05/10 05:46:59;;;;;;;;;;;;;;;;;;4307980;33;19947;-95
2021/05/10 05:49:37;;;;;;;;;;;;;;;;;;4314094;33;19974;-94
2021/05/10 05:52:09;;;;;;;;;;;;;;;;;;4296921;33;19975;-96
2021/05/10 05:54:40;;;;;;;;;;;;;;;;;;4312486;33;19976;-94
2021/05/10 05:57:15;;;;;;;;;;;;;;;;;;4299595;33;20025;-94
2021/05/10 05:59:46;;;;;;;;;;;;;;;;;;4306225;33;20018;-93
2021/05/10 06:02:19;;;;;;;;;;;;;;;;;;4316259;33;20346;-96
2021/05/10 06:05:59;;;;;;;;;;;;;;;;;;4342738;33;19935;-96
2021/05/10 06:08:59;;;;;;;;;;;;;;;;;;4327266;33;19972;-95
2021/05/10 06:11:35;;;;;;;;;;;;;;;;;;4316437;33;19962;-95
2021/05/10 06:14:23;;;;;;;;;;;;;;;;;;4303508;33;20004;-95
2021/05/10 06:17:01;;;;;;;;;;;;;;;;;;4302279;33;19956;-96
2021/05/10 06:20:11;;;;;;;;;;;;;;;;;;4294226;33;20025;-96
2021/05/10 06:23:08;;;;;;;;;;;;;;;;;;4299928;33;19956;-95
2021/05/10 06:25:41;;;;;;;;;;;;;;;;;;4302555;33;19963;-94
2021/05/10 06:28:09;;;;;;;;;;;;;;;;;;4301676;33;19998;-94
2021/05/10 06:30:43;;;;;;;;;;;;;;;;;;4299781;33;20003;-93
2021/05/10 06:33:14;;;;;;;;;;;;;;;;;;4299674;33;20054;-95
2021/05/10 06:35:55;;;;;;;;;;;;;;;;;;4301071;33;19980;-94
2021/05/10 06:38:46;;;;;;;;;;;;;;;;;;4308825;33;19952;-95
2021/05/10 06:41:21;;;;;;;;;;;;;;;;;;4306978;33;20000;-95
2021/05/10 06:43:53;;;;;;;;;;;;;;;;;;4301400;33;19982;-95
2021/05/10 06:46:34;;;;;;;;;;;;;;;;;;4307258;33;19948;-96
2021/05/10 06:49:15;;;;;;;;;;;;;;;;;;4307079;33;19949;-94
2021/05/10 06:51:57;;;;;;;;;;;;;;;;;;4305105;33;20246;-95
2021/05/10 06:54:32;;;;;;;;;;;;;;;;;;4305516;33;19954;-95
2021/05/10 06:57:06;;;;;;;;;;;;;;;;;;4302886;33;20009;-95
2021/05/10 06:59:37;;;;;;;;;;;;;;;;;;4303525;33;20027;-95
2021/05/10 07:02:08;;;;;;;;;;;;;;;;;;4317115;33;19998;-96
2021/05/10 07:04:42;;;;;;;;;;;;;;;;;;4316480;33;20388;-93
2021/05/10 07:07:10;;;;;;;;;;;;;;;;;;4320268;33;20005;-95
2021/05/10 07:09:41;;;;;;;;;;;;;;;;;;4306052;33;20004;-96
2021/05/10 07:12:12;;;;;;;;;;;;;;;;;;4307966;33;19964;-96
2021/05/10 07:14:45;;;;;;;;;;;;;;;;;;4304965;33;20278;-96
2021/05/10 07:17:19;;;;;;;;;;;;;;;;;;4324293;33;20412;-96
2021/05/10 07:19:48;;;;;;;;;;;;;;;;;;4306628;33;20310;-96
2021/05/10 07:22:23;;;;;;;;;;;;;;;;;;4298628;33;19944;-95
2021/05/10 07:24:59;;;;;;;;;;;;;;;;;;4303401;33;19966;-95
2021/05/10 07:27:31;;;;;;;;;;;;;;;;;;4329787;33;20007;-92
2021/05/10 07:29:59;;;;;;;;;;;;;;;;;;4313288;33;19940;-95
2021/05/10 07:32:27;;;;;;;;;;;;;;;;;;4304456;33;19990;-96
2021/05/10 07:34:58;;;;;;;;;;;;;;;;;;4305237;33;19966;-94
2021/05/10 07:37:29;;;;;;;;;;;;;;;;;;4297757;33;19948;-93
2021/05/10 07:40:03;;;;;;;;;;;;;;;;;;4305697;33;19960;-95
2021/05/10 07:42:39;;;;;;;;;;;;;;;;;;4317562;33;20046;-95
2021/05/10 07:45:37;;;;;;;;;;;;;;;;;;4306159;33;21093;-96
2021/05/10 07:48:06;;;;;;;;;;;;;;;;;;4317521;33;20320;-96
2021/05/10 07:50:44;;;;;;;;;;;;;;;;;;4302072;33;20012;-94
2021/05/10 07:53:14;;;;;;;;;;;;;;;;;;4300514;33;19960;-95
2021/05/10 07:55:56;;;;;;;;;;;;;;;;;;4307481;33;19978;-96
2021/05/10 07:58:24;;;;;;;;;;;;;;;;;;4307878;33;20297;-95
2021/05/10 08:01:03;;;;;;;;;;;;;;;;;;4317683;33;20047;-96
2021/05/10 08:03:34;;;;;;;;;;;;;;;;;;4301484;33;19987;-94
2021/05/10 08:06:08;;;;;;;;;;;;;;;;;;4306190;33;20030;-96
2021/05/10 08:08:44;;;;;;;;;;;;;;;;;;4305355;33;19995;-96
2021/05/10 08:11:12;;;;;;;;;;;;;;;;;;4316530;33;20656;-96
2021/05/10 08:13:42;;;;;;;;;;;;;;;;;;4301954;33;19966;-96
2021/05/10 08:16:13;;;;;;;;;;;;;;;;;;4301367;33;20078;-95
2021/05/10 08:18:51;;;;;;;;;;;;;;;;;;4306055;33;19988;-96
2021/05/10 08:21:22;;;;;;;;;;;;;;;;;;4296538;33;20026;-95
2021/05/10 08:23:55;;;;;;;;;;;;;;;;;;4311667;33;20026;-96
2021/05/10 08:26:24;;;;;;;;;;;;;;;;;;4303065;33;20043;-95
2021/05/10 08:29:01;;;;;;;;;;;;;;;;;;4302132;33;20054;-96
2021/05/10 08:31:35;;;;;;;;;;;;;;;;;;4295521;33;20026;-96
2021/05/10 08:34:12;;;;;;;;;;;;;;;;;;4309111;33;19995;-95
2021/05/10 08:36:45;;;;;;;;;;;;;;;;;;4305985;33;19979;-96
2021/05/10 08:39:29;;;;;;;;;;;;;;;;;;4323259;33;19948;-96
2021/05/10 08:42:18;;;;;;;;;;;;;;;;;;4317714;33;20009;-95
2021/05/10 08:44:46;;;;;;;;;;;;;;;;;;4325197;33;19976;-95
2021/05/10 08:47:37;;;;;;;;;;;;;;;;;;4306537;33;20415;-96
2021/05/10 08:50:12;;;;;;;;;;;;;;;;;;4303177;33;19976;-96
2021/05/10 08:53:04;;;;;;;;;;;;;;;;;;4313103;33;20034;-95
2021/05/10 08:55:39;;;;;;;;;;;;;;;;;;4309925;33;19978;-96
2021/05/10 08:58:12;;;;;;;;;;;;;;;;;;4311944;33;19999;-96
2021/05/10 09:00:43;;;;;;;;;;;;;;;;;;4303998;33;19994;-96
2021/05/10 09:03:21;;;;;;;;;;;;;;;;;;4311638;33;20011;-96
2021/05/10 09:05:59;;;;;;;;;;;;;;;;;;4304179;33;19967;-96
2021/05/10 09:08:42;;;;;;;;;;;;;;;;;;4323308;33;19994;-96
2021/05/10 09:11:13;;;;;;;;;;;;;;;;;;4314174;33;19988;-96
2021/05/10 09:13:44;;;;;;;;;;;;;;;;;;4301845;33;19963;-96
2021/05/10 09:16:17;;;;;;;;;;;;;;;;;;4298900;33;20787;-96
2021/05/10 09:18:53;;;;;;;;;;;;;;;;;;4306957;33;20769;-96
2021/05/10 09:21:21;;;;;;;;;;;;;;;;;;4303534;33;19995;-96
2021/05/10 09:24:09;;;;;;;;;;;;;;;;;;4304654;33;19989;-95
2021/05/10 09:27:08;;;;;;;;;;;;;;;;;;4309779;33;19960;-96
2021/05/10 09:30:25;;;;;;;;;;;;;;;;;;4294501;33;19975;-96
2021/05/10 09:32:53;;;;;;;;;;;;;;;;;;4309794;33;20320;-96
2021/05/10 09:35:25;;;;;;;;;;;;;;;;;;4304320;33;19971;-96
2021/05/10 09:37:53;;;;;;;;;;;;;;;;;;4306120;33;19971;-95
2021/05/10 09:40:21;;;;;;;;;;;;;;;;;;4301647;33;20392;-96
2021/05/10 09:43:18;;;;;;;;;;;;;;;;;;4310785;33;20002;-96
2021/05/10 09:45:46;;;;;;;;;;;;;;;;;;4305952;33;20444;-95
2021/05/10 09:48:17;;;;;;;;;;;;;;;;;;4302200;33;19964;-96
2021/05/10 09:50:53;;;;;;;;;;;;;;;;;;4308544;33;20010;-96
2021/05/10 09:53:38;;;;;;;;;;;;;;;;;;4304077;33;19967;-96
2021/05/10 09:56:11;;;;;;;;;;;;;;;;;;4293454;33;19964;-95
2021/05/10 09:58:50;;;;;;;;;;;;;;;;;;4304321;33;19970;-95
2021/05/10 10:01:25;;;;;;;;;;;;;;;;;;4314551;33;19955;-96
2021/05/10 10:04:02;;;;;;;;;;;;;;;;;;4291664;33;20014;-96
2021/05/10 10:06:34;;;;;;;;;;;;;;;;;;4314203;33;20352;-94
2021/05/10 10:09:07;;;;;;;;;;;;;;;;;;4307527;33;19960;-96
2021/05/10 10:11:53;;;;;;;;;;;;;;;;;;4304744;33;20001;-96
2021/05/10 10:14:32;;;;;;;;;;;;;;;;;;4305136;33;19955;-95
2021/05/10 10:17:06;;;;;;;;;;;;;;;;;;4296169;33;19958;-96
2021/05/10 10:19:40;;;;;;;;;;;;;;;;;;4303371;33;19956;-96
2021/05/10 10:22:13;;;;;;;;;;;;;;;;;;4301719;33;19961;-95
2021/05/10 10:24:54;;;;;;;;;;;;;;;;;;4326723;33;20312;-96
2021/05/10 10:27:47;;;;;;;;;;;;;;;;;;4304186;33;19964;-96
2021/05/10 10:30:34;;;;;;;;;;;;;;;;;;;;;
2021/05/10 10:33:06;;;;;;;;;;;;;;;;;;4311754;33;19964;-96
2021/05/10 10:35:48;;;;;;;;;;;;;;;;;;4295200;33;19959;-95
2021/05/10 10:38:21;;;;;;;;;;;;;;;;;;4307363;33;19983;-96
2021/05/10 10:40:57;;;;;;;;;;;;;;;;;;4309331;33;19968;-96
2021/05/10 10:43:28;;;;;;;;;;;;;;;;;;4307545;33;19974;-96
2021/05/10 10:45:59;;;;;;;;;;;;;;;;;;4314539;33;19972;-96
2021/05/10 10:48:30;;;;;;;;;;;;;;;;;;4317036;33;20270;-96
2021/05/10 10:51:03;;;;;;;;;;;;;;;;;;4312743;33;20007;-96
2021/05/10 10:53:36;;;;;;;;;;;;;;;;;;4300890;33;19983;-96
2021/05/10 10:56:12;;;;;;;;;;;;;;;;;;4294757;33;19975;-96
2021/05/10 10:58:44;;;;;;;;;;;;;;;;;;4297095;33;19952;-96
2021/05/10 11:01:22;;;;;;;;;;;;;;;;;;4291972;33;19982;-96
2021/05/10 11:03:56;;;;;;;;;;;;;;;;;;4304341;33;19998;-95
2021/05/10 11:06:30;;;;;;;;;;;;;;;;;;4315095;33;20490;-96
2021/05/10 11:09:04;;;;;;;;;;;;;;;;;;4299055;33;19944;-96
2021/05/10 11:11:37;;;;;;;;;;;;;;;;;;4295148;33;19971;-95
2021/05/10 11:14:10;;;;;;;;;;;;;;;;;;4301854;33;20000;-95
2021/05/10 11:16:44;;;;;;;;;;;;;;;;;;4304795;33;19968;-96
2021/05/10 11:19:18;;;;;;;;;;;;;;;;;;4311977;33;19968;-96
2021/05/10 11:21:51;;;;;;;;;;;;;;;;;;4307805;33;20401;-96
2021/05/10 11:24:24;;;;;;;;;;;;;;;;;;4308089;33;19952;-96
2021/05/10 11:27:00;;;;;;;;;;;;;;;;;;4304278;33;20373;-96
2021/05/10 11:29:29;;;;;;;;;;;;;;;;;;4304320;33;19987;-96
2021/05/10 11:31:57;;;;;;;;;;;;;;;;;;4305072;33;19966;-96
2021/05/10 11:34:39;;;;;;;;;;;;;;;;;;4312048;33;20458;-96
2021/05/10 11:37:14;;;;;;;;;;;;;;;;;;4313066;33;20531;-96
2021/05/10 11:39:48;;;;;;;;;;;;;;;;;;4305960;33;19972;-96
2021/05/10 11:42:22;;;;;;;;;;;;;;;;;;4301343;33;19953;-96
2021/05/10 11:44:50;;;;;;;;;;;;;;;;;;4297510;33;19999;-96
2021/05/10 11:47:33;;;;;;;;;;;;;;;;;;4306454;33;19961;-96
2021/05/10 11:50:07;;;;;;;;;;;;;;;;;;4305249;33;20007;-95
2021/05/10 11:52:45;;;;;;;;;;;;;;;;;;4304176;33;19991;-95
2021/05/10 11:55:18;;;;;;;;;;;;;;;;;;4304396;33;20002;-96
2021/05/10 11:58:01;;;;;;;;;;;;;;;;;;;;;
2021/05/10 12:01:01;;;;;;;;;;;;;;;;;;4331761;27;19962;-96
2021/05/10 12:03:35;;;;;;;;;;;;;;;;;;4316668;33;20349;-96
2021/05/10 12:06:03;;;;;;;;;;;;;;;;;;4291172;33;19961;-95
2021/05/10 12:08:45;;;;;;;;;;;;;;;;;;4317488;33;20027;-96
2021/05/10 12:11:21;;;;;;;;;;;;;;;;;;4306448;33;20230;-96
2021/05/10 12:13:54;;;;;;;;;;;;;;;;;;4325036;33;19998;-96
2021/05/10 12:16:22;;;;;;;;;;;;;;;;;;4297333;33;19976;-95
2021/05/10 12:19:13;;;;;;;;;;;;;;;;;;4317097;33;20889;-95
2021/05/10 12:21:46;;;;;;;;;;;;;;;;;;4293193;33;20084;-96
2021/05/10 12:24:17;;;;;;;;;;;;;;;;;;4292481;33;19948;-95
2021/05/10 12:26:51;;;;;;;;;;;;;;;;;;4292193;33;19980;-96
2021/05/10 12:29:25;;;;;;;;;;;;;;;;;;4294214;33;19990;-96
2021/05/10 12:32:00;;;;;;;;;;;;;;;;;;4291706;33;20378;-96
2021/05/10 12:34:41;;;;;;;;;;;;;;;;;;4295616;33;19978;-95
2021/05/10 12:37:14;;;;;;;;;;;;;;;;;;4299924;33;19967;-96
2021/05/10 12:39:42;;;;;;;;;;;;;;;;;;4315757;33;20218;-96
2021/05/10 12:42:13;;;;;;;;;;;;;;;;;;4291499;33;19996;-96
2021/05/10 12:44:48;;;;;;;;;;;;;;;;;;4315910;33;19960;-96
2021/05/10 12:47:22;;;;;;;;;;;;;;;;;;4303717;33;19964;-96
2021/05/10 12:49:55;;;;;;;;;;;;;;;;;;4291723;33;20381;-96
2021/05/10 12:52:23;;;;;;;;;;;;;;;;;;4295915;33;20024;-96
2021/05/10 12:54:59;;;;;;;;;;;;;;;;;;4320608;33;19995;-96
2021/05/10 12:57:32;;;;;;;;;;;;;;;;;;4298292;33;20008;-95
2021/05/10 13:00:05;;;;;;;;;;;;;;;;;;4290649;33;20000;-96
2021/05/10 13:02:37;;;;;;;;;;;;;;;;;;4291307;33;20008;-94
2021/05/10 13:05:07;;;;;;;;;;;;;;;;;;4304857;33;20038;-95
2021/05/10 13:07:39;;;;;;;;;;;;;;;;;;4313047;33;19971;-96
2021/05/10 13:10:09;;;;;;;;;;;;;;;;;;4316736;33;20344;-94
2021/05/10 13:12:37;;;;;;;;;;;;;;;;;;4312784;33;19980;-95
2021/05/10 13:15:05;;;;;;;;;;;;;;;;;;4298645;33;19999;-96
2021/05/10 13:17:54;;;;;;;;;;;;;;;;;;4294292;33;20016;-94
2021/05/10 13:20:40;;;;;;;;;;;;;;;;;;4313340;33;20604;-95
2021/05/10 13:32:38;;;;;;;;;;;;;;;;;;4291286;33;20023;-95
2021/05/10 13:35:20;;;;;;;;;;;;;;;;;;4285622;33;20559;-95
2021/05/10 13:37:54;;;;;;;;;;;;;;;;;;4303938;33;20016;-96
2021/05/10 13:40:30;;;;;;;;;;;;;;;;;;4313429;33;19992;-95
2021/05/10 13:43:08;;;;;;;;;;;;;;;;;;4307784;33;19954;-96
2021/05/10 13:45:41;;;;;;;;;;;;;;;;;;4285375;33;19988;-96
2021/05/10 13:48:16;;;;;;;;;;;;;;;;;;4303299;33;19957;-95
2021/05/10 13:50:58;;;;;;;;;;;;;;;;;;4317305;33;20038;-95
2021/05/10 13:53:32;;;;;;;;;;;;;;;;;;4312202;33;20027;-94
2021/05/10 13:56:02;;;;;;;;;;;;;;;;;;4291724;33;19987;-93
2021/05/10 13:58:35;;;;;;;;;;;;;;;;;;4300781;33;19991;-96
2021/05/10 14:01:10;;;;;;;;;;;;;;;;;;4290093;33;19967;-96
2021/05/10 14:03:41;;;;;;;;;;;;;;;;;;4296491;33;19992;-96
2021/05/10 14:06:11;;;;;;;;;;;;;;;;;;4314230;33;19949;-96
2021/05/10 14:08:40;;;;;;;;;;;;;;;;;;4316537;33;20422;-96
2021/05/10 14:11:14;;;;;;;;;;;;;;;;;;4309714;33;19949;-96
2021/05/10 14:13:45;;;;;;;;;;;;;;;;;;4315155;33;19952;-96
2021/05/10 14:16:14;;;;;;;;;;;;;;;;;;4312643;33;19983;-94
2021/05/10 14:18:54;;;;;;;;;;;;;;;;;;4301870;33;20045;-95
2021/05/10 14:24:15;;;;;;;;;;;;;;;;;;4310493;33;20000;-93
2021/05/10 14:26:43;;;;;;;;;;;;;;;;;;4295804;33;19998;-92
2021/05/10 14:29:14;;;;;;;;;;;;;;;;;;4298442;33;19961;-96
2021/05/10 14:31:44;;;;;;;;;;;;;;;;;;4295028;33;20015;-92
2021/05/10 14:34:13;;;;;;;;;;;;;;;;;;4313063;33;20525;-94
2021/05/10 14:36:47;;;;;;;;;;;;;;;;;;4288838;33;19956;-93
2021/05/10 14:39:19;;;;;;;;;;;;;;;;;;4304493;33;19984;-94
2021/05/10 14:41:49;;;;;;;;;;;;;;;;;;4312226;33;19952;-94
2021/05/10 14:44:21;;;;;;;;;;;;;;;;;;4287450;33;19980;-94
2021/05/10 14:46:52;;;;;;;;;;;;;;;;;;4313791;33;19956;-92
2021/05/10 14:49:22;;;;;;;;;;;;;;;;;;4298972;33;19944;-93
2021/05/10 14:51:52;;;;;;;;;;;;;;;;;;4308951;33;20421;-94
2021/05/10 14:54:23;;;;;;;;;;;;;;;;;;4296117;33;20011;-94
2021/05/10 14:56:53;;;;;;;;;;;;;;;;;;4309874;33;20115;-94
2021/05/10 14:59:22;;;;;;;;;;;;;;;;;;4299674;33;19957;-93
2021/05/10 15:01:52;;;;;;;;;;;;;;;;;;4300047;33;20007;-92
2021/05/10 15:04:22;;;;;;;;;;;;;;;;;;4288328;33;19994;-94
2021/05/10 15:06:51;;;;;;;;;;;;;;;;;;4286530;33;19956;-95
2021/05/10 15:09:19;;;;;;;;;;;;;;;;;;4302228;33;20365;-94
2021/05/10 15:11:49;;;;;;;;;;;;;;;;;;4292625;33;20003;-94
2021/05/10 15:14:20;;;;;;;;;;;;;;;;;;4288286;33;19995;-95
2021/05/10 15:16:49;;;;;;;;;;;;;;;;;;4291194;33;19960;-94
2021/05/10 15:19:20;;;;;;;;;;;;;;;;;;4286573;33;19953;-95
2021/05/10 15:21:51;;;;;;;;;;;;;;;;;;4300992;33;19957;-94
2021/05/10 15:24:23;;;;;;;;;;;;;;;;;;4317565;33;19995;-94
2021/05/10 15:26:50;;;;;;;;;;;;;;;;;;4289412;33;19965;-95
2021/05/10 15:29:21;;;;;;;;;;;;;;;;;;4315529;33;19975;-95
2021/05/10 15:31:52;;;;;;;;;;;;;;;;;;4303412;33;19996;-95
2021/05/10 15:34:22;;;;;;;;;;;;;;;;;;4299100;33;20016;-92
2021/05/10 15:36:52;;;;;;;;;;;;;;;;;;4298147;33;19976;-95
2021/05/10 15:39:22;;;;;;;;;;;;;;;;;;4297937;33;20016;-93
2021/05/10 15:41:53;;;;;;;;;;;;;;;;;;4311316;33;20002;-94
2021/05/10 15:44:24;;;;;;;;;;;;;;;;;;4293659;33;20334;-93
2021/05/10 15:46:52;;;;;;;;;;;;;;;;;;4320904;33;19968;-93
2021/05/10 15:49:19;;;;;;;;;;;;;;;;;;4302893;33;20029;-93
2021/05/10 15:51:50;;;;;;;;;;;;;;;;;;4292998;33;20033;-94
2021/05/10 15:54:21;;;;;;;;;;;;;;;;;;4295489;33;19960;-94
2021/05/10 15:56:51;;;;;;;;;;;;;;;;;;4293292;33;19972;-93
2021/05/10 15:59:19;;;;;;;;;;;;;;;;;;4294755;33;19945;-95
2021/05/10 16:01:50;;;;;;;;;;;;;;;;;;4287366;33;19956;-93
2021/05/10 16:04:19;;;;;;;;;;;;;;;;;;4299711;33;19959;-94
2021/05/10 16:06:46;;;;;;;;;;;;;;;;;;4293814;33;19957;-94
2021/05/10 16:09:14;;;;;;;;;;;;;;;;;;4295440;33;19948;-93
2021/05/10 16:11:46;;;;;;;;;;;;;;;;;;4292691;33;19963;-94
2021/05/10 16:14:17;;;;;;;;;;;;;;;;;;4291300;33;19974;-93
2021/05/10 16:16:48;;;;;;;;;;;;;;;;;;4294683;33;19960;-93
2021/05/10 16:19:15;;;;;;;;;;;;;;;;;;4296040;33;19967;-95
2021/05/10 16:21:46;;;;;;;;;;;;;;;;;;4289813;33;20926;-94
2021/05/10 16:24:24;;;;;;;;;;;;;;;;;;4298916;33;19960;-92
2021/05/10 16:26:55;;;;;;;;;;;;;;;;;;4294766;33;19964;-94
2021/05/10 16:29:25;;;;;;;;;;;;;;;;;;4312966;33;20325;-92
2021/05/10 16:31:53;;;;;;;;;;;;;;;;;;4315438;33;20063;-95
2021/05/10 16:34:24;;;;;;;;;;;;;;;;;;4279366;33;20007;-93
2021/05/10 16:36:54;;;;;;;;;;;;;;;;;;4288809;33;20463;-94
2021/05/10 16:39:25;;;;;;;;;;;;;;;;;;4323561;33;20009;-94
2021/05/10 16:41:53;;;;;;;;;;;;;;;;;;4311601;33;20248;-93
2021/05/10 16:44:21;;;;;;;;;;;;;;;;;;4301036;33;20029;-95
2021/05/10 16:46:49;;;;;;;;;;;;;;;;;;4291346;33;19948;-94
2021/05/10 16:49:18;;;;;;;;;;;;;;;;;;4302383;33;19952;-94
2021/05/10 16:51:48;;;;;;;;;;;;;;;;;;4303252;33;19979;-95
2021/05/10 16:54:18;;;;;;;;;;;;;;;;;;4297632;33;19996;-93
2021/05/10 16:56:50;;;;;;;;;;;;;;;;;;4311232;33;19956;-94
2021/05/10 16:59:21;;;;;;;;;;;;;;;;;;4300978;33;19996;-93
2021/05/10 17:01:52;;;;;;;;;;;;;;;;;;4314387;33;19984;-95
2021/05/10 17:04:20;;;;;;;;;;;;;;;;;;4295905;33;19992;-94
2021/05/10 17:06:48;;;;;;;;;;;;;;;;;;4282228;33;19969;-93
2021/05/10 17:09:20;;;;;;;;;;;;;;;;;;4293933;33;19967;-93
2021/05/10 17:11:50;;;;;;;;;;;;;;;;;;4306196;33;19996;-93
2021/05/10 17:14:19;;;;;;;;;;;;;;;;;;4300337;33;19988;-92
2021/05/10 17:16:50;;;;;;;;;;;;;;;;;;4313412;33;20372;-94
2021/05/10 17:19:22;;;;;;;;;;;;;;;;;;4314326;33;19949;-94
2021/05/10 17:21:52;;;;;;;;;;;;;;;;;;4325059;33;19964;-93
2021/05/10 17:24:23;;;;;;;;;;;;;;;;;;4310638;33;20368;-96
2021/05/10 17:26:59;;;;;;;;;;;;;;;;;;4311884;33;19952;-95
2021/05/10 17:29:36;;;;;;;;;;;;;;;;;;4292326;33;20346;-96
2021/05/10 17:32:09;;;;;;;;;;;;;;;;;;4313862;33;20040;-94
2021/05/10 17:34:42;;;;;;;;;;;;;;;;;;4289206;33;20058;-94
2021/05/10 17:37:12;;;;;;;;;;;;;;;;;;4291130;33;19990;-95
2021/05/10 17:39:44;;;;;;;;;;;;;;;;;;4311299;33;19960;-94
2021/05/10 17:42:14;;;;;;;;;;;;;;;;;;4316503;33;19992;-95
2021/05/10 17:44:59;;;;;;;;;;;;;;;;;;4300373;33;20293;-94
2021/05/10 17:47:37;;;;;;;;;;;;;;;;;;4295545;33;19980;-95
2021/05/10 17:50:09;;;;;;;;;;;;;;;;;;4300650;33;19956;-94
2021/05/10 17:52:41;;;;;;;;;;;;;;;;;;4308171;33;20295;-94
2021/05/10 17:55:15;;;;;;;;;;;;;;;;;;4312098;33;20357;-93